Weather at Ketchikan International Airport

Public forecast

Using degrees Fahrenheit for public forecast. Weather courtesy of forecast.io.

Current aviation weather report (METAR) for Ketchikan International Airport

Retrieved 2021/07/23 20:53 UTC (50 minutes ago):

PAKT 232053Z 13014KT 10SM SCT007 BKN016 OVC024 14/13 A3010

Aviation forecast (TAF) for Ketchikan International Airport

Retrieved 2021/07/23 18:42 UTC (3 hours ago):

TAF PAKT 231741Z 2318/2418 14010KT 5SM -RA BR SCT014 OVC020 TEMPO 2318/2322 2SM -RA BR BKN007 OVC014 FM240300 14006KT 6SM -SHRA BKN015 OVC025 AMD LTD TO CLD VIS AND WIND 2406/2415